UAL3121 MMMX-KLAX
Flight info
| Callsign | UAL3121 |
|---|---|
| Flight time | 3h 17m |
| Altitude | 38000 |
| Route | ATURO2A ATURO UT134 ZCL DCT AVISU UT60 AXASA UT41 ASUTA DCT AMMOR OLAAA2 |
| Aircraft | A20N/M-SDE2E3FGHIRWXY/LB1 |
Departure
| Time | 2026-05-07 21:57 |
|---|---|
| Airport | Mexico City Benito Juárez International Airport (MMMX) |
Arrival
| Time | 2026-05-08 01:15 |
|---|---|
| Airport | Los Angeles International Airport (KLAX) |
| Time | Latitude | Longitude | Altitude | Speed | Heading |
|---|---|---|---|---|---|
| 2026-05-07 21:37 | 19.43370 | -99.08387 | 7302 ft | 0 kts | 328° |
| 2026-05-07 21:53 | 19.43350 | -99.08374 | 7302 ft | 5 kts | 328° |
| 2026-05-07 21:53 | 19.43300 | -99.08338 | 7302 ft | 8 kts | 294° |
| 2026-05-07 21:53 | 19.43308 | -99.08306 | 7302 ft | 0 kts | 227° |
| 2026-05-07 21:55 | 19.43254 | -99.08400 | 7301 ft | 35 kts | 241° |
| 2026-05-07 21:55 | 19.43187 | -99.08520 | 7301 ft | 0 kts | 239° |
| 2026-05-07 21:55 | 19.43165 | -99.08558 | 7301 ft | 22 kts | 238° |
| 2026-05-07 21:56 | 19.43079 | -99.08710 | 7300 ft | 25 kts | 242° |
| 2026-05-07 21:56 | 19.42979 | -99.08816 | 7300 ft | 14 kts | 175° |
| 2026-05-07 21:56 | 19.42955 | -99.08799 | 7300 ft | 2 kts | 115° |
| 2026-05-07 21:56 | 19.43040 | -99.08550 | 7300 ft | 74 kts | 59° |
| 2026-05-07 21:57 | 19.43451 | -99.07872 | 7304 ft | 141 kts | 58° |
| 2026-05-07 21:57 | 19.44036 | -99.06816 | 7439 ft | 183 kts | 60° |
| 2026-05-07 21:57 | 19.44691 | -99.05567 | 7926 ft | 206 kts | 60° |
| 2026-05-07 21:57 | 19.45438 | -99.04179 | 8532 ft | 225 kts | 59° |
| 2026-05-07 21:58 | 19.46253 | -99.02721 | 9321 ft | 240 kts | 58° |
| 2026-05-07 21:58 | 19.47171 | -99.01146 | 9881 ft | 263 kts | 58° |
| 2026-05-07 21:58 | 19.48163 | -98.99421 | 10380 ft | 286 kts | 58° |
| 2026-05-07 21:58 | 19.49234 | -98.97542 | 10800 ft | 310 kts | 58° |
| 2026-05-07 21:59 | 19.50382 | -98.95504 | 11180 ft | 334 kts | 59° |
| 2026-05-07 21:59 | 19.51606 | -98.93317 | 11661 ft | 352 kts | 59° |
| 2026-05-07 21:59 | 19.52884 | -98.91078 | 12551 ft | 357 kts | 56° |
| 2026-05-07 21:59 | 19.54416 | -98.88992 | 13435 ft | 361 kts | 47° |
| 2026-05-07 22:00 | 19.56136 | -98.87027 | 14298 ft | 366 kts | 47° |
| 2026-05-07 22:00 | 19.57877 | -98.85029 | 15114 ft | 371 kts | 47° |
| 2026-05-07 22:00 | 19.59660 | -98.82974 | 15576 ft | 387 kts | 47° |
| 2026-05-07 22:00 | 19.61535 | -98.80810 | 15734 ft | 410 kts | 47° |
| 2026-05-07 22:01 | 19.63518 | -98.78520 | 15762 ft | 433 kts | 47° |
| 2026-05-07 22:01 | 19.65608 | -98.76105 | 15760 ft | 455 kts | 47° |
| 2026-05-07 22:01 | 19.67793 | -98.73580 | 15759 ft | 468 kts | 47° |
| 2026-05-07 22:01 | 19.70101 | -98.71302 | 15758 ft | 445 kts | 36° |
| 2026-05-07 22:02 | 19.72706 | -98.69684 | 15759 ft | 420 kts | 22° |
| 2026-05-07 22:02 | 19.75431 | -98.68867 | 15759 ft | 397 kts | 7° |
| 2026-05-07 22:02 | 19.78111 | -98.68779 | 15758 ft | 376 kts | 357° |
| 2026-05-07 22:02 | 19.80685 | -98.68904 | 15760 ft | 371 kts | 357° |
| 2026-05-07 22:03 | 19.83289 | -98.68972 | 15759 ft | 376 kts | 359° |
| 2026-05-07 22:03 | 19.85896 | -98.68933 | 15759 ft | 374 kts | 1° |
| 2026-05-07 22:03 | 19.88499 | -98.68815 | 15759 ft | 375 kts | 2° |
| 2026-05-07 22:03 | 19.91110 | -98.68656 | 15872 ft | 378 kts | 3° |
| 2026-05-07 22:04 | 19.93742 | -98.68487 | 16514 ft | 379 kts | 1° |
| 2026-05-07 22:04 | 19.96361 | -98.68759 | 17160 ft | 380 kts | 346° |
| 2026-05-07 22:04 | 19.98799 | -98.69752 | 17718 ft | 383 kts | 330° |
| 2026-05-07 22:04 | 20.01011 | -98.71353 | 18274 ft | 386 kts | 323° |
| 2026-05-07 22:05 | 20.03189 | -98.73049 | 18850 ft | 390 kts | 323° |
| 2026-05-07 22:05 | 20.05387 | -98.74756 | 19400 ft | 393 kts | 323° |
| 2026-05-07 22:05 | 20.07607 | -98.76475 | 19934 ft | 396 kts | 323° |
| 2026-05-07 22:05 | 20.09845 | -98.78206 | 20461 ft | 400 kts | 323° |
| 2026-05-07 22:06 | 20.12106 | -98.79955 | 20968 ft | 403 kts | 323° |
| 2026-05-07 22:06 | 20.14383 | -98.81716 | 21453 ft | 406 kts | 323° |
| 2026-05-07 22:06 | 20.16676 | -98.83496 | 21941 ft | 410 kts | 323° |
| 2026-05-07 22:06 | 20.18979 | -98.85300 | 22407 ft | 413 kts | 323° |
| 2026-05-07 22:07 | 20.21289 | -98.87129 | 22923 ft | 415 kts | 321° |
| 2026-05-07 22:07 | 20.23432 | -98.89191 | 23406 ft | 417 kts | 313° |
| 2026-05-07 22:07 | 20.25305 | -98.91565 | 23862 ft | 420 kts | 305° |
| 2026-05-07 22:07 | 20.26887 | -98.94183 | 24359 ft | 422 kts | 301° |
| 2026-05-07 22:08 | 20.28412 | -98.96866 | 24793 ft | 425 kts | 301° |
| 2026-05-07 22:08 | 20.29956 | -98.99563 | 25236 ft | 428 kts | 301° |
| 2026-05-07 22:08 | 20.31512 | -99.02276 | 25662 ft | 430 kts | 301° |
| 2026-05-07 22:08 | 20.33077 | -99.05007 | 26069 ft | 433 kts | 301° |
| 2026-05-07 22:09 | 20.34653 | -99.07761 | 26398 ft | 437 kts | 301° |
| 2026-05-07 22:09 | 20.36239 | -99.10537 | 26758 ft | 440 kts | 301° |
| 2026-05-07 22:09 | 20.37833 | -99.13326 | 27165 ft | 442 kts | 301° |
| 2026-05-07 22:09 | 20.39433 | -99.16128 | 27532 ft | 444 kts | 301° |
| 2026-05-07 22:10 | 20.41039 | -99.18943 | 27918 ft | 445 kts | 301° |
| 2026-05-07 22:10 | 20.42662 | -99.21768 | 28235 ft | 448 kts | 303° |
| 2026-05-07 22:10 | 20.44505 | -99.24458 | 28553 ft | 451 kts | 309° |
| 2026-05-07 22:10 | 20.46638 | -99.26918 | 28898 ft | 453 kts | 316° |
| 2026-05-07 22:11 | 20.49012 | -99.29135 | 29222 ft | 455 kts | 320° |
| 2026-05-07 22:11 | 20.51443 | -99.31313 | 29499 ft | 458 kts | 319° |
| 2026-05-07 22:11 | 20.53880 | -99.33509 | 29838 ft | 459 kts | 319° |
| 2026-05-07 22:11 | 20.56289 | -99.35685 | 30159 ft | 461 kts | 319° |
| 2026-05-07 22:12 | 20.58746 | -99.37905 | 30464 ft | 464 kts | 319° |
| 2026-05-07 22:12 | 20.61214 | -99.40134 | 30799 ft | 466 kts | 319° |
| 2026-05-07 22:12 | 20.63699 | -99.42379 | 31024 ft | 470 kts | 319° |
| 2026-05-07 22:12 | 20.66194 | -99.44634 | 31371 ft | 470 kts | 319° |
| 2026-05-07 22:13 | 20.68691 | -99.46891 | 31718 ft | 470 kts | 319° |
| 2026-05-07 22:13 | 20.71182 | -99.49144 | 32124 ft | 469 kts | 319° |
| 2026-05-07 22:13 | 20.73665 | -99.51390 | 32458 ft | 468 kts | 319° |
| 2026-05-07 22:13 | 20.76147 | -99.53637 | 32877 ft | 465 kts | 319° |
| 2026-05-07 22:14 | 20.78620 | -99.55877 | 33078 ft | 468 kts | 319° |
| 2026-05-07 22:14 | 20.81118 | -99.58140 | 33091 ft | 472 kts | 319° |
| 2026-05-07 22:14 | 20.83623 | -99.60410 | 33330 ft | 472 kts | 319° |
| 2026-05-07 22:14 | 20.86125 | -99.62679 | 33535 ft | 472 kts | 319° |
| 2026-05-07 22:15 | 20.88621 | -99.64943 | 33870 ft | 469 kts | 319° |
| 2026-05-07 22:15 | 20.91095 | -99.67189 | 34274 ft | 465 kts | 319° |
| 2026-05-07 22:15 | 20.93551 | -99.69420 | 34655 ft | 462 kts | 319° |
| 2026-05-07 22:15 | 20.95993 | -99.71638 | 34954 ft | 461 kts | 319° |
| 2026-05-07 22:16 | 20.98436 | -99.73858 | 35297 ft | 459 kts | 319° |
| 2026-05-07 22:16 | 21.00864 | -99.76066 | 35607 ft | 457 kts | 319° |
| 2026-05-07 22:16 | 21.03174 | -99.78402 | 35857 ft | 457 kts | 313° |
| 2026-05-07 22:16 | 21.05235 | -99.80983 | 36114 ft | 456 kts | 307° |
| 2026-05-07 22:17 | 21.07067 | -99.83754 | 36322 ft | 456 kts | 304° |
| 2026-05-07 22:17 | 21.08878 | -99.86551 | 36484 ft | 458 kts | 304° |
| 2026-05-07 22:17 | 21.10702 | -99.89350 | 36640 ft | 459 kts | 304° |
| 2026-05-07 22:17 | 21.12528 | -99.92149 | 36874 ft | 458 kts | 304° |
| 2026-05-07 22:18 | 21.14350 | -99.94947 | 37055 ft | 458 kts | 304° |
| 2026-05-07 22:18 | 21.18006 | -100.00572 | 37241 ft | 462 kts | 304° |
| 2026-05-07 22:18 | 21.19838 | -100.03395 | 37396 ft | 462 kts | 304° |
| 2026-05-07 22:19 | 21.21672 | -100.06223 | 37541 ft | 461 kts | 304° |
| 2026-05-07 22:19 | 21.25342 | -100.11885 | 37711 ft | 463 kts | 304° |
| 2026-05-07 22:19 | 21.27180 | -100.14724 | 37841 ft | 463 kts | 304° |
| 2026-05-07 22:20 | 21.29014 | -100.17555 | 37984 ft | 462 kts | 304° |
| 2026-05-07 22:20 | 21.32665 | -100.23199 | 38001 ft | 460 kts | 304° |
| 2026-05-07 22:21 | 21.36308 | -100.28838 | 38000 ft | 457 kts | 304° |
| 2026-05-07 22:21 | 21.39920 | -100.34434 | 37999 ft | 458 kts | 304° |
| 2026-05-07 22:22 | 21.43559 | -100.40077 | 38001 ft | 461 kts | 304° |
| 2026-05-07 22:22 | 21.47204 | -100.45734 | 38001 ft | 461 kts | 304° |
| 2026-05-07 22:23 | 21.50822 | -100.51356 | 38011 ft | 461 kts | 304° |
| 2026-05-07 22:23 | 21.54462 | -100.57019 | 38006 ft | 461 kts | 304° |
| 2026-05-07 22:24 | 21.58100 | -100.62683 | 38009 ft | 460 kts | 304° |
| 2026-05-07 22:24 | 21.61734 | -100.68347 | 38000 ft | 459 kts | 304° |
| 2026-05-07 22:25 | 21.65350 | -100.73988 | 38000 ft | 457 kts | 304° |
| 2026-05-07 22:25 | 21.68958 | -100.79624 | 38000 ft | 459 kts | 304° |
| 2026-05-07 22:26 | 21.72577 | -100.85281 | 37999 ft | 460 kts | 304° |
| 2026-05-07 22:26 | 21.76201 | -100.90954 | 38004 ft | 459 kts | 304° |
| 2026-05-07 22:27 | 21.79807 | -100.96603 | 37996 ft | 457 kts | 304° |
| 2026-05-07 22:27 | 21.83389 | -101.02222 | 37979 ft | 454 kts | 304° |
| 2026-05-07 22:28 | 21.86985 | -101.07867 | 38000 ft | 460 kts | 304° |
| 2026-05-07 22:28 | 21.90600 | -101.13548 | 38000 ft | 459 kts | 304° |
| 2026-05-07 22:29 | 21.94211 | -101.19229 | 38000 ft | 460 kts | 304° |
| 2026-05-07 22:29 | 21.97824 | -101.24919 | 38000 ft | 460 kts | 304° |
| 2026-05-07 22:30 | 22.01435 | -101.30606 | 38000 ft | 460 kts | 304° |
| 2026-05-07 22:30 | 22.05055 | -101.36288 | 38001 ft | 460 kts | 304° |
| 2026-05-07 22:31 | 22.08673 | -101.41966 | 37998 ft | 460 kts | 304° |
| 2026-05-07 22:31 | 22.12289 | -101.47650 | 37996 ft | 460 kts | 304° |
| 2026-05-07 22:32 | 22.15902 | -101.53338 | 37991 ft | 460 kts | 304° |
| 2026-05-07 22:32 | 22.19512 | -101.59026 | 37993 ft | 459 kts | 304° |
| 2026-05-07 22:33 | 22.23096 | -101.64679 | 37992 ft | 459 kts | 304° |
| 2026-05-07 22:33 | 22.26702 | -101.70375 | 37994 ft | 460 kts | 304° |
| 2026-05-07 22:34 | 22.30308 | -101.76075 | 37997 ft | 460 kts | 304° |
| 2026-05-07 22:34 | 22.33914 | -101.81782 | 38001 ft | 460 kts | 304° |
| 2026-05-07 22:35 | 22.37520 | -101.87494 | 38000 ft | 460 kts | 304° |
| 2026-05-07 22:35 | 22.41124 | -101.93210 | 37997 ft | 460 kts | 304° |
| 2026-05-07 22:36 | 22.44121 | -101.97966 | 38005 ft | 461 kts | 304° |
| 2026-05-07 22:36 | 22.47726 | -102.03696 | 38007 ft | 461 kts | 304° |
| 2026-05-07 22:37 | 22.51327 | -102.09425 | 38005 ft | 461 kts | 304° |
| 2026-05-07 22:37 | 22.54928 | -102.15159 | 38009 ft | 461 kts | 304° |
| 2026-05-07 22:38 | 22.58529 | -102.20900 | 38006 ft | 461 kts | 304° |
| 2026-05-07 22:38 | 22.62125 | -102.26639 | 38009 ft | 461 kts | 304° |
| 2026-05-07 22:39 | 22.65720 | -102.32383 | 38007 ft | 461 kts | 304° |
| 2026-05-07 22:39 | 22.69311 | -102.38125 | 38003 ft | 460 kts | 304° |
| 2026-05-07 22:40 | 22.72899 | -102.43870 | 37998 ft | 460 kts | 304° |
| 2026-05-07 22:40 | 22.76483 | -102.49615 | 37997 ft | 460 kts | 304° |
| 2026-05-07 22:41 | 22.80068 | -102.55368 | 37985 ft | 460 kts | 304° |
| 2026-05-07 22:41 | 22.83644 | -102.61113 | 37988 ft | 460 kts | 304° |
| 2026-05-07 22:42 | 22.87218 | -102.66861 | 37995 ft | 460 kts | 304° |
| 2026-05-07 22:42 | 22.90741 | -102.72598 | 37997 ft | 460 kts | 302° |
| 2026-05-07 22:43 | 22.94192 | -102.78442 | 37998 ft | 460 kts | 302° |
| 2026-05-07 22:43 | 22.97653 | -102.84297 | 37998 ft | 460 kts | 302° |
| 2026-05-07 22:44 | 23.01118 | -102.90142 | 37996 ft | 460 kts | 302° |
| 2026-05-07 22:44 | 23.04588 | -102.95994 | 37991 ft | 461 kts | 302° |
| 2026-05-07 22:45 | 23.08056 | -103.01852 | 37991 ft | 461 kts | 302° |
| 2026-05-07 22:45 | 23.11519 | -103.07708 | 38004 ft | 461 kts | 302° |
| 2026-05-07 22:46 | 23.14986 | -103.13577 | 38011 ft | 461 kts | 302° |
| 2026-05-07 22:46 | 23.18448 | -103.19444 | 38000 ft | 460 kts | 302° |
| 2026-05-07 22:47 | 23.21873 | -103.25256 | 38001 ft | 460 kts | 302° |
| 2026-05-07 22:47 | 23.25321 | -103.31113 | 38000 ft | 460 kts | 302° |
| 2026-05-07 22:48 | 23.28769 | -103.36976 | 38000 ft | 461 kts | 302° |
| 2026-05-07 22:48 | 23.32232 | -103.42872 | 38004 ft | 462 kts | 302° |
| 2026-05-07 22:49 | 23.35683 | -103.48755 | 37997 ft | 460 kts | 302° |
| 2026-05-07 22:49 | 23.39124 | -103.54628 | 37982 ft | 459 kts | 302° |
| 2026-05-07 22:50 | 23.42555 | -103.60489 | 37980 ft | 458 kts | 302° |
| 2026-05-07 22:50 | 23.45979 | -103.66347 | 37982 ft | 458 kts | 302° |
| 2026-05-07 22:51 | 23.49396 | -103.72198 | 37983 ft | 458 kts | 302° |
| 2026-05-07 22:51 | 23.52810 | -103.78050 | 37987 ft | 458 kts | 302° |
| 2026-05-07 22:52 | 23.56221 | -103.83906 | 37989 ft | 458 kts | 302° |
| 2026-05-07 22:52 | 23.59633 | -103.89769 | 37994 ft | 458 kts | 302° |
| 2026-05-07 22:53 | 23.63261 | -103.95477 | 37994 ft | 458 kts | 309° |
| 2026-05-07 22:53 | 23.67610 | -104.00565 | 37997 ft | 459 kts | 314° |
| 2026-05-07 22:54 | 23.72023 | -104.05575 | 38003 ft | 459 kts | 314° |
| 2026-05-07 22:54 | 23.76462 | -104.10608 | 38004 ft | 460 kts | 314° |
| 2026-05-07 22:55 | 23.80878 | -104.15609 | 38009 ft | 460 kts | 314° |
| 2026-05-07 22:55 | 23.85319 | -104.20641 | 38001 ft | 459 kts | 314° |
| 2026-05-07 22:56 | 23.89738 | -104.25653 | 38000 ft | 457 kts | 314° |
| 2026-05-07 22:56 | 23.94156 | -104.30671 | 38000 ft | 458 kts | 314° |
| 2026-05-07 22:57 | 23.98577 | -104.35696 | 38000 ft | 459 kts | 314° |
| 2026-05-07 22:57 | 24.02977 | -104.40702 | 38000 ft | 458 kts | 313° |
| 2026-05-07 22:58 | 24.07395 | -104.45736 | 38000 ft | 458 kts | 313° |
| 2026-05-07 22:58 | 24.11810 | -104.50773 | 37998 ft | 458 kts | 313° |
| 2026-05-07 22:59 | 24.16219 | -104.55810 | 37996 ft | 458 kts | 313° |
| 2026-05-07 22:59 | 24.20623 | -104.60846 | 37995 ft | 458 kts | 313° |
| 2026-05-07 23:00 | 24.25024 | -104.65884 | 37992 ft | 457 kts | 313° |
| 2026-05-07 23:00 | 24.29426 | -104.70929 | 37992 ft | 457 kts | 313° |
| 2026-05-07 23:01 | 24.33825 | -104.75977 | 37992 ft | 457 kts | 313° |
| 2026-05-07 23:01 | 24.38200 | -104.81001 | 37989 ft | 458 kts | 313° |
| 2026-05-07 23:02 | 24.42610 | -104.86072 | 38002 ft | 461 kts | 313° |
| 2026-05-07 23:02 | 24.47055 | -104.91187 | 37999 ft | 463 kts | 313° |
| 2026-05-07 23:03 | 24.51492 | -104.96300 | 37999 ft | 462 kts | 313° |
| 2026-05-07 23:03 | 24.55931 | -105.01420 | 38000 ft | 463 kts | 313° |
| 2026-05-07 23:04 | 24.60347 | -105.06520 | 37997 ft | 464 kts | 313° |
| 2026-05-07 23:04 | 24.64797 | -105.11665 | 38005 ft | 465 kts | 313° |
| 2026-05-07 23:05 | 24.69250 | -105.16818 | 38000 ft | 466 kts | 313° |
| 2026-05-07 23:05 | 24.73711 | -105.21986 | 38001 ft | 463 kts | 313° |
| 2026-05-07 23:06 | 24.78109 | -105.27088 | 38001 ft | 458 kts | 313° |
| 2026-05-07 23:06 | 24.82510 | -105.32199 | 38000 ft | 459 kts | 313° |
| 2026-05-07 23:07 | 24.86889 | -105.37289 | 38000 ft | 458 kts | 313° |
| 2026-05-07 23:07 | 24.91241 | -105.42353 | 38000 ft | 459 kts | 313° |
| 2026-05-07 23:08 | 24.95632 | -105.47469 | 37999 ft | 460 kts | 313° |
| 2026-05-07 23:08 | 25.00026 | -105.52594 | 38002 ft | 460 kts | 313° |
| 2026-05-07 23:09 | 25.04428 | -105.57733 | 37991 ft | 461 kts | 313° |
| 2026-05-07 23:09 | 25.08829 | -105.62878 | 37984 ft | 461 kts | 313° |
| 2026-05-07 23:10 | 25.13233 | -105.68032 | 37989 ft | 462 kts | 313° |
| 2026-05-07 23:10 | 25.17639 | -105.73193 | 38007 ft | 462 kts | 313° |
| 2026-05-07 23:11 | 25.22040 | -105.78356 | 38000 ft | 462 kts | 313° |
| 2026-05-07 23:11 | 25.26438 | -105.83520 | 38000 ft | 459 kts | 313° |
| 2026-05-07 23:12 | 25.30800 | -105.88647 | 38001 ft | 461 kts | 313° |
| 2026-05-07 23:12 | 25.35196 | -105.93821 | 38000 ft | 462 kts | 313° |
| 2026-05-07 23:13 | 25.39601 | -105.99012 | 38001 ft | 463 kts | 313° |
| 2026-05-07 23:13 | 25.43994 | -106.04193 | 38000 ft | 462 kts | 314° |
| 2026-05-07 23:14 | 25.48411 | -106.09349 | 38000 ft | 462 kts | 314° |
| 2026-05-07 23:14 | 25.52819 | -106.14531 | 38000 ft | 462 kts | 313° |
| 2026-05-07 23:15 | 25.57203 | -106.19726 | 38000 ft | 461 kts | 313° |
| 2026-05-07 23:15 | 25.61587 | -106.24931 | 37997 ft | 462 kts | 313° |
| 2026-05-07 23:16 | 25.65978 | -106.30148 | 37999 ft | 463 kts | 313° |
| 2026-05-07 23:16 | 25.70375 | -106.35379 | 38000 ft | 463 kts | 313° |
| 2026-05-07 23:17 | 25.74721 | -106.40553 | 38000 ft | 460 kts | 313° |
| 2026-05-07 23:17 | 25.79101 | -106.45772 | 38000 ft | 462 kts | 313° |
| 2026-05-07 23:18 | 25.83481 | -106.50998 | 38000 ft | 462 kts | 313° |
| 2026-05-07 23:18 | 25.87858 | -106.56225 | 38000 ft | 462 kts | 313° |
| 2026-05-07 23:19 | 25.92244 | -106.61469 | 38000 ft | 464 kts | 313° |
| 2026-05-07 23:19 | 25.96629 | -106.66718 | 38002 ft | 462 kts | 313° |
| 2026-05-07 23:20 | 26.00984 | -106.71936 | 37987 ft | 459 kts | 313° |
| 2026-05-07 23:20 | 26.05349 | -106.77172 | 38000 ft | 464 kts | 313° |
| 2026-05-07 23:21 | 26.09712 | -106.82411 | 38000 ft | 464 kts | 313° |
| 2026-05-07 23:21 | 26.14084 | -106.87667 | 38000 ft | 461 kts | 313° |
| 2026-05-07 23:22 | 26.18437 | -106.92907 | 37999 ft | 460 kts | 313° |
| 2026-05-07 23:22 | 26.22779 | -106.98139 | 38003 ft | 459 kts | 313° |
| 2026-05-07 23:23 | 26.26376 | -107.02478 | 38002 ft | 459 kts | 313° |
| 2026-05-07 23:23 | 26.30709 | -107.07710 | 38004 ft | 458 kts | 312° |
| 2026-05-07 23:24 | 26.35031 | -107.12934 | 37987 ft | 458 kts | 312° |
| 2026-05-07 23:24 | 26.39348 | -107.18159 | 37979 ft | 458 kts | 312° |
| 2026-05-07 23:25 | 26.43671 | -107.23397 | 38001 ft | 461 kts | 312° |
| 2026-05-07 23:25 | 26.48006 | -107.28657 | 38000 ft | 460 kts | 312° |
| 2026-05-07 23:26 | 26.52318 | -107.33894 | 37999 ft | 461 kts | 312° |
| 2026-05-07 23:26 | 26.56639 | -107.39148 | 37999 ft | 455 kts | 312° |
| 2026-05-07 23:27 | 26.63084 | -107.46997 | 38001 ft | 461 kts | 312° |
| 2026-05-07 23:27 | 26.67416 | -107.52281 | 38000 ft | 460 kts | 312° |
| 2026-05-07 23:28 | 26.71686 | -107.57494 | 38002 ft | 456 kts | 312° |
| 2026-05-07 23:28 | 26.75929 | -107.62681 | 38000 ft | 448 kts | 312° |
| 2026-05-07 23:29 | 26.80152 | -107.67851 | 38002 ft | 451 kts | 312° |
| 2026-05-07 23:29 | 26.84393 | -107.73047 | 38001 ft | 453 kts | 312° |
| 2026-05-07 23:30 | 26.88632 | -107.78247 | 38001 ft | 450 kts | 312° |
| 2026-05-07 23:30 | 26.92861 | -107.83442 | 38000 ft | 449 kts | 312° |
| 2026-05-07 23:31 | 26.97074 | -107.88624 | 38002 ft | 452 kts | 312° |
| 2026-05-07 23:31 | 27.01291 | -107.93816 | 37999 ft | 450 kts | 312° |
| 2026-05-07 23:32 | 27.05527 | -107.99037 | 38003 ft | 455 kts | 312° |
| 2026-05-07 23:32 | 27.09765 | -108.04268 | 37999 ft | 455 kts | 312° |
| 2026-05-07 23:33 | 27.14044 | -108.09555 | 38001 ft | 460 kts | 312° |
| 2026-05-07 23:33 | 27.18331 | -108.14859 | 38001 ft | 458 kts | 312° |
| 2026-05-07 23:34 | 27.22627 | -108.20181 | 38000 ft | 459 kts | 312° |
| 2026-05-07 23:34 | 27.26896 | -108.25476 | 37999 ft | 455 kts | 312° |
| 2026-05-07 23:35 | 27.31149 | -108.30757 | 38000 ft | 456 kts | 312° |
| 2026-05-07 23:35 | 27.35405 | -108.36049 | 38000 ft | 455 kts | 312° |
| 2026-05-07 23:36 | 27.39641 | -108.41323 | 38001 ft | 452 kts | 311° |
| 2026-05-07 23:36 | 27.43868 | -108.46592 | 37999 ft | 454 kts | 311° |
| 2026-05-07 23:37 | 27.48091 | -108.51862 | 37999 ft | 449 kts | 311° |
| 2026-05-07 23:37 | 27.52243 | -108.57050 | 37999 ft | 450 kts | 311° |
| 2026-05-07 23:38 | 27.56457 | -108.62322 | 37999 ft | 455 kts | 311° |
| 2026-05-07 23:38 | 27.60692 | -108.67626 | 37999 ft | 451 kts | 311° |
| 2026-05-07 23:39 | 27.64884 | -108.72883 | 38002 ft | 451 kts | 311° |
| 2026-05-07 23:39 | 27.69081 | -108.78154 | 37999 ft | 453 kts | 311° |
| 2026-05-07 23:40 | 27.73274 | -108.83425 | 37999 ft | 448 kts | 311° |
| 2026-05-07 23:40 | 27.77413 | -108.88635 | 37997 ft | 448 kts | 311° |
| 2026-05-07 23:41 | 27.81591 | -108.93901 | 37999 ft | 453 kts | 311° |
| 2026-05-07 23:41 | 27.85802 | -108.99216 | 37999 ft | 452 kts | 311° |
| 2026-05-07 23:42 | 27.89978 | -109.04492 | 38000 ft | 450 kts | 311° |
| 2026-05-07 23:42 | 27.94162 | -109.09786 | 38000 ft | 452 kts | 311° |
| 2026-05-07 23:43 | 27.98360 | -109.15103 | 38001 ft | 453 kts | 311° |
| 2026-05-07 23:43 | 28.02544 | -109.20410 | 38000 ft | 451 kts | 311° |
| 2026-05-07 23:44 | 28.06711 | -109.25701 | 37987 ft | 449 kts | 311° |
| 2026-05-07 23:44 | 28.10853 | -109.30968 | 37990 ft | 447 kts | 311° |
| 2026-05-07 23:45 | 28.14975 | -109.36215 | 37980 ft | 445 kts | 311° |
| 2026-05-07 23:45 | 28.19122 | -109.41503 | 38002 ft | 450 kts | 311° |
| 2026-05-07 23:46 | 28.23241 | -109.46760 | 38000 ft | 447 kts | 311° |
| 2026-05-07 23:46 | 28.27376 | -109.52044 | 38000 ft | 449 kts | 311° |
| 2026-05-07 23:47 | 28.31527 | -109.57356 | 38000 ft | 449 kts | 311° |
| 2026-05-07 23:47 | 28.35652 | -109.62641 | 38000 ft | 446 kts | 311° |
| 2026-05-07 23:48 | 28.39785 | -109.67942 | 38001 ft | 450 kts | 311° |
| 2026-05-07 23:48 | 28.43943 | -109.73283 | 38000 ft | 450 kts | 311° |
| 2026-05-07 23:49 | 28.48078 | -109.78602 | 38000 ft | 448 kts | 311° |
| 2026-05-07 23:49 | 28.52208 | -109.83920 | 38000 ft | 448 kts | 311° |
| 2026-05-07 23:50 | 28.56309 | -109.89208 | 37999 ft | 448 kts | 311° |
| 2026-05-07 23:50 | 28.60434 | -109.94534 | 38002 ft | 449 kts | 311° |
| 2026-05-07 23:51 | 28.64561 | -109.99868 | 38000 ft | 449 kts | 311° |
| 2026-05-07 23:51 | 28.68681 | -110.05202 | 37996 ft | 449 kts | 311° |
| 2026-05-07 23:52 | 28.72803 | -110.10545 | 37990 ft | 449 kts | 311° |
| 2026-05-07 23:52 | 28.76925 | -110.15894 | 37981 ft | 449 kts | 311° |
| 2026-05-07 23:53 | 28.81043 | -110.21245 | 37992 ft | 449 kts | 311° |
| 2026-05-07 23:53 | 28.85160 | -110.26603 | 38000 ft | 449 kts | 311° |
| 2026-05-07 23:54 | 28.89277 | -110.31966 | 38004 ft | 450 kts | 311° |
| 2026-05-07 23:54 | 28.93396 | -110.37340 | 38007 ft | 450 kts | 311° |
| 2026-05-07 23:55 | 28.97519 | -110.42726 | 38009 ft | 450 kts | 311° |
| 2026-05-07 23:55 | 29.01641 | -110.48117 | 38013 ft | 450 kts | 311° |
| 2026-05-07 23:56 | 29.05734 | -110.53479 | 38009 ft | 450 kts | 311° |
| 2026-05-07 23:56 | 29.09848 | -110.58874 | 38013 ft | 450 kts | 311° |
| 2026-05-07 23:57 | 29.13964 | -110.64278 | 38011 ft | 450 kts | 311° |
| 2026-05-07 23:57 | 29.18075 | -110.69684 | 38010 ft | 450 kts | 310° |
| 2026-05-07 23:58 | 29.22179 | -110.75088 | 38000 ft | 449 kts | 310° |
| 2026-05-07 23:58 | 29.26261 | -110.80470 | 38000 ft | 447 kts | 310° |
| 2026-05-07 23:59 | 29.30344 | -110.85860 | 38000 ft | 448 kts | 310° |
| 2026-05-07 23:59 | 29.34425 | -110.91255 | 38000 ft | 448 kts | 310° |
| 2026-05-08 00:00 | 29.38508 | -110.96661 | 38000 ft | 449 kts | 310° |
| 2026-05-08 00:00 | 29.42595 | -111.02078 | 38000 ft | 449 kts | 310° |
| 2026-05-08 00:01 | 29.46663 | -111.07477 | 37997 ft | 450 kts | 310° |
| 2026-05-08 00:01 | 29.50755 | -111.12916 | 38004 ft | 450 kts | 310° |
| 2026-05-08 00:02 | 29.54850 | -111.18366 | 38008 ft | 450 kts | 310° |
| 2026-05-08 00:02 | 29.58943 | -111.23820 | 38011 ft | 451 kts | 310° |
| 2026-05-08 00:03 | 29.63035 | -111.29280 | 38010 ft | 451 kts | 310° |
| 2026-05-08 00:03 | 29.67128 | -111.34751 | 38008 ft | 451 kts | 310° |
| 2026-05-08 00:04 | 29.71219 | -111.40225 | 38005 ft | 451 kts | 310° |
| 2026-05-08 00:04 | 29.75283 | -111.45670 | 38000 ft | 451 kts | 310° |
| 2026-05-08 00:05 | 29.79391 | -111.51182 | 38001 ft | 451 kts | 310° |
| 2026-05-08 00:05 | 29.83446 | -111.56630 | 38001 ft | 450 kts | 310° |
| 2026-05-08 00:06 | 29.87520 | -111.62112 | 37990 ft | 450 kts | 310° |
| 2026-05-08 00:06 | 29.91590 | -111.67595 | 37994 ft | 450 kts | 310° |
| 2026-05-08 00:07 | 29.95652 | -111.73075 | 37991 ft | 450 kts | 310° |
| 2026-05-08 00:07 | 29.99718 | -111.78569 | 37995 ft | 450 kts | 310° |
| 2026-05-08 00:08 | 30.03780 | -111.84064 | 37998 ft | 450 kts | 310° |
| 2026-05-08 00:08 | 30.06789 | -111.88140 | 38001 ft | 450 kts | 310° |
| 2026-05-08 00:09 | 30.08506 | -111.90466 | 38003 ft | 450 kts | 310° |
| 2026-05-08 00:10 | 30.09414 | -111.91698 | 38004 ft | 451 kts | 310° |
| 2026-05-08 00:11 | 30.10701 | -111.93444 | 38005 ft | 451 kts | 310° |
| 2026-05-08 00:11 | 30.14743 | -111.98933 | 38004 ft | 451 kts | 310° |
| 2026-05-08 00:12 | 30.18807 | -112.04459 | 38005 ft | 451 kts | 310° |
| 2026-05-08 00:12 | 30.22868 | -112.09990 | 38003 ft | 451 kts | 310° |
| 2026-05-08 00:13 | 30.26908 | -112.15499 | 38000 ft | 448 kts | 310° |
| 2026-05-08 00:13 | 30.30936 | -112.20999 | 38000 ft | 448 kts | 310° |
| 2026-05-08 00:14 | 30.34939 | -112.26473 | 38000 ft | 448 kts | 310° |
| 2026-05-08 00:14 | 30.38964 | -112.31984 | 38000 ft | 448 kts | 310° |
| 2026-05-08 00:15 | 30.42991 | -112.37507 | 38002 ft | 449 kts | 310° |
| 2026-05-08 00:15 | 30.47018 | -112.43036 | 38006 ft | 449 kts | 310° |
| 2026-05-08 00:16 | 30.51047 | -112.48576 | 38000 ft | 448 kts | 310° |
| 2026-05-08 00:16 | 30.55055 | -112.54096 | 38000 ft | 447 kts | 310° |
| 2026-05-08 00:17 | 30.59071 | -112.59634 | 38000 ft | 449 kts | 310° |
| 2026-05-08 00:17 | 30.63058 | -112.65140 | 38000 ft | 448 kts | 310° |
| 2026-05-08 00:18 | 30.67060 | -112.70674 | 37999 ft | 447 kts | 310° |
| 2026-05-08 00:18 | 30.71050 | -112.76199 | 37998 ft | 446 kts | 310° |
| 2026-05-08 00:19 | 30.75038 | -112.81730 | 37997 ft | 446 kts | 309° |
| 2026-05-08 00:19 | 30.79014 | -112.87252 | 37995 ft | 445 kts | 309° |
| 2026-05-08 00:20 | 30.82991 | -112.92783 | 37995 ft | 445 kts | 309° |
| 2026-05-08 00:20 | 30.86962 | -112.98312 | 37994 ft | 445 kts | 309° |
| 2026-05-08 00:21 | 30.90928 | -113.03844 | 37995 ft | 445 kts | 309° |
| 2026-05-08 00:21 | 30.94866 | -113.09344 | 37995 ft | 445 kts | 309° |
| 2026-05-08 00:22 | 30.98833 | -113.14893 | 37996 ft | 445 kts | 309° |
| 2026-05-08 00:22 | 31.02795 | -113.20442 | 37997 ft | 445 kts | 309° |
| 2026-05-08 00:23 | 31.06756 | -113.25998 | 37998 ft | 446 kts | 309° |
| 2026-05-08 00:23 | 31.10717 | -113.31562 | 37997 ft | 446 kts | 309° |
| 2026-05-08 00:24 | 31.14680 | -113.37136 | 38001 ft | 446 kts | 309° |
| 2026-05-08 00:24 | 31.18639 | -113.42713 | 38002 ft | 446 kts | 309° |
| 2026-05-08 00:25 | 31.22598 | -113.48299 | 38003 ft | 446 kts | 309° |
| 2026-05-08 00:25 | 31.26548 | -113.53879 | 38003 ft | 446 kts | 309° |
| 2026-05-08 00:26 | 31.30480 | -113.59437 | 38004 ft | 446 kts | 309° |
| 2026-05-08 00:26 | 31.34433 | -113.65033 | 38004 ft | 446 kts | 309° |
| 2026-05-08 00:27 | 31.38384 | -113.70634 | 38003 ft | 446 kts | 309° |
| 2026-05-08 00:27 | 31.42333 | -113.76239 | 38001 ft | 446 kts | 309° |
| 2026-05-08 00:28 | 31.46277 | -113.81860 | 37990 ft | 446 kts | 309° |
| 2026-05-08 00:28 | 31.50208 | -113.87493 | 37978 ft | 446 kts | 309° |
| 2026-05-08 00:29 | 31.54125 | -113.93146 | 37959 ft | 447 kts | 309° |
| 2026-05-08 00:29 | 31.58029 | -113.98815 | 37952 ft | 446 kts | 308° |
| 2026-05-08 00:30 | 31.61891 | -114.04462 | 37951 ft | 446 kts | 308° |
| 2026-05-08 00:30 | 31.65763 | -114.10161 | 37939 ft | 446 kts | 308° |
| 2026-05-08 00:31 | 31.69617 | -114.15873 | 37935 ft | 446 kts | 308° |
| 2026-05-08 00:31 | 31.73458 | -114.21603 | 37927 ft | 446 kts | 308° |
| 2026-05-08 00:32 | 31.77281 | -114.27343 | 37923 ft | 446 kts | 308° |
| 2026-05-08 00:32 | 31.81084 | -114.33093 | 37918 ft | 446 kts | 307° |
| 2026-05-08 00:33 | 31.84873 | -114.38860 | 37913 ft | 446 kts | 307° |
| 2026-05-08 00:33 | 31.88648 | -114.44645 | 37907 ft | 446 kts | 307° |
| 2026-05-08 00:34 | 31.92405 | -114.50441 | 37903 ft | 446 kts | 307° |
| 2026-05-08 00:34 | 31.96152 | -114.56263 | 37900 ft | 446 kts | 307° |
| 2026-05-08 00:35 | 31.99883 | -114.62098 | 37899 ft | 446 kts | 307° |
| 2026-05-08 00:35 | 32.03574 | -114.67909 | 37897 ft | 446 kts | 306° |
| 2026-05-08 00:36 | 32.07276 | -114.73778 | 37901 ft | 446 kts | 306° |
| 2026-05-08 00:36 | 32.10961 | -114.79660 | 37897 ft | 446 kts | 306° |
| 2026-05-08 00:37 | 32.14632 | -114.85560 | 37897 ft | 446 kts | 306° |
| 2026-05-08 00:38 | 32.20124 | -114.94425 | 37900 ft | 446 kts | 307° |
| 2026-05-08 00:38 | 32.24382 | -114.99686 | 38027 ft | 444 kts | 325° |
| 2026-05-08 00:39 | 32.29830 | -115.03205 | 38031 ft | 447 kts | 328° |
| 2026-05-08 00:39 | 32.32349 | -115.05333 | 37914 ft | 443 kts | 319° |
| 2026-05-08 00:39 | 32.34487 | -115.07936 | 37480 ft | 441 kts | 307° |
| 2026-05-08 00:39 | 32.36248 | -115.10902 | 36865 ft | 440 kts | 303° |
| 2026-05-08 00:40 | 32.37908 | -115.13944 | 36188 ft | 440 kts | 302° |
| 2026-05-08 00:40 | 32.39538 | -115.17010 | 35463 ft | 441 kts | 302° |
| 2026-05-08 00:40 | 32.41179 | -115.20106 | 34449 ft | 448 kts | 302° |
| 2026-05-08 00:40 | 32.42834 | -115.23219 | 33361 ft | 456 kts | 302° |
| 2026-05-08 00:41 | 32.44566 | -115.26464 | 32230 ft | 464 kts | 302° |
| 2026-05-08 00:41 | 32.46299 | -115.29707 | 31213 ft | 467 kts | 302° |
| 2026-05-08 00:41 | 32.48038 | -115.32959 | 30225 ft | 468 kts | 302° |
| 2026-05-08 00:41 | 32.49784 | -115.36226 | 29224 ft | 470 kts | 302° |
| 2026-05-08 00:42 | 32.51519 | -115.39476 | 28327 ft | 463 kts | 302° |
| 2026-05-08 00:42 | 32.53202 | -115.42629 | 27422 ft | 454 kts | 302° |
| 2026-05-08 00:42 | 32.54862 | -115.45743 | 26800 ft | 439 kts | 302° |
| 2026-05-08 00:42 | 32.56453 | -115.48731 | 26441 ft | 419 kts | 302° |
| 2026-05-08 00:43 | 32.58010 | -115.51656 | 26197 ft | 422 kts | 302° |
| 2026-05-08 00:43 | 32.59577 | -115.54604 | 26013 ft | 423 kts | 302° |
| 2026-05-08 00:43 | 32.61146 | -115.57559 | 26010 ft | 424 kts | 302° |
| 2026-05-08 00:43 | 32.62716 | -115.60516 | 26000 ft | 423 kts | 302° |
| 2026-05-08 00:44 | 32.64280 | -115.63464 | 25999 ft | 422 kts | 302° |
| 2026-05-08 00:44 | 32.65842 | -115.66412 | 26000 ft | 422 kts | 302° |
| 2026-05-08 00:44 | 32.67405 | -115.69365 | 26000 ft | 422 kts | 302° |
| 2026-05-08 00:44 | 32.68964 | -115.72318 | 26000 ft | 422 kts | 302° |
| 2026-05-08 00:45 | 32.70523 | -115.75273 | 26000 ft | 422 kts | 302° |
| 2026-05-08 00:45 | 32.72082 | -115.78229 | 26000 ft | 422 kts | 302° |
| 2026-05-08 00:45 | 32.73638 | -115.81183 | 26000 ft | 422 kts | 302° |
| 2026-05-08 00:45 | 32.75196 | -115.84140 | 26000 ft | 422 kts | 302° |
| 2026-05-08 00:46 | 32.76753 | -115.87101 | 26000 ft | 423 kts | 302° |
| 2026-05-08 00:46 | 32.78311 | -115.90064 | 26000 ft | 422 kts | 302° |
| 2026-05-08 00:46 | 32.79867 | -115.93026 | 26000 ft | 422 kts | 302° |
| 2026-05-08 00:46 | 32.81417 | -115.95997 | 26000 ft | 423 kts | 301° |
| 2026-05-08 00:47 | 32.82923 | -115.99001 | 26000 ft | 423 kts | 300° |
| 2026-05-08 00:47 | 32.84410 | -116.02024 | 26000 ft | 424 kts | 300° |
| 2026-05-08 00:47 | 32.85903 | -116.05050 | 26000 ft | 423 kts | 300° |
| 2026-05-08 00:47 | 32.87397 | -116.08060 | 26000 ft | 423 kts | 300° |
| 2026-05-08 00:48 | 32.88897 | -116.11068 | 26000 ft | 423 kts | 300° |
| 2026-05-08 00:48 | 32.90385 | -116.14041 | 26000 ft | 424 kts | 300° |
| 2026-05-08 00:48 | 32.91894 | -116.17058 | 26001 ft | 424 kts | 300° |
| 2026-05-08 00:48 | 32.93401 | -116.20071 | 26000 ft | 424 kts | 300° |
| 2026-05-08 00:49 | 32.94911 | -116.23094 | 26000 ft | 424 kts | 300° |
| 2026-05-08 00:49 | 32.96413 | -116.26104 | 26000 ft | 424 kts | 300° |
| 2026-05-08 00:49 | 32.97922 | -116.29130 | 26000 ft | 425 kts | 300° |
| 2026-05-08 00:49 | 32.99429 | -116.32156 | 26000 ft | 425 kts | 300° |
| 2026-05-08 00:50 | 33.00941 | -116.35195 | 26000 ft | 427 kts | 300° |
| 2026-05-08 00:50 | 33.02459 | -116.38247 | 26000 ft | 428 kts | 300° |
| 2026-05-08 00:50 | 33.03970 | -116.41290 | 26000 ft | 426 kts | 300° |
| 2026-05-08 00:50 | 33.05344 | -116.44422 | 25883 ft | 427 kts | 294° |
| 2026-05-08 00:51 | 33.06547 | -116.47661 | 25627 ft | 427 kts | 294° |
| 2026-05-08 00:51 | 33.07751 | -116.50885 | 25389 ft | 423 kts | 294° |
| 2026-05-08 00:51 | 33.08932 | -116.54041 | 25145 ft | 420 kts | 294° |
| 2026-05-08 00:51 | 33.10122 | -116.57218 | 24891 ft | 421 kts | 294° |
| 2026-05-08 00:52 | 33.11322 | -116.60424 | 24638 ft | 423 kts | 294° |
| 2026-05-08 00:52 | 33.12496 | -116.63618 | 24391 ft | 418 kts | 291° |
| 2026-05-08 00:52 | 33.13397 | -116.66866 | 24143 ft | 414 kts | 284° |
| 2026-05-08 00:52 | 33.13974 | -116.70224 | 23894 ft | 413 kts | 279° |
| 2026-05-08 00:53 | 33.14458 | -116.73598 | 23645 ft | 412 kts | 279° |
| 2026-05-08 00:53 | 33.14953 | -116.76967 | 23395 ft | 410 kts | 280° |
| 2026-05-08 00:53 | 33.15446 | -116.80306 | 23144 ft | 407 kts | 280° |
| 2026-05-08 00:53 | 33.15936 | -116.83629 | 22722 ft | 408 kts | 279° |
| 2026-05-08 00:54 | 33.16426 | -116.86968 | 22136 ft | 407 kts | 279° |
| 2026-05-08 00:54 | 33.16910 | -116.90284 | 21547 ft | 404 kts | 279° |
| 2026-05-08 00:54 | 33.17389 | -116.93565 | 20964 ft | 399 kts | 279° |
| 2026-05-08 00:54 | 33.17862 | -116.96818 | 20382 ft | 395 kts | 279° |
| 2026-05-08 00:55 | 33.18327 | -117.00024 | 19810 ft | 390 kts | 279° |
| 2026-05-08 00:55 | 33.18787 | -117.03196 | 19235 ft | 386 kts | 279° |
| 2026-05-08 00:55 | 33.19241 | -117.06341 | 18670 ft | 382 kts | 279° |
| 2026-05-08 00:55 | 33.19689 | -117.09446 | 18108 ft | 378 kts | 279° |
| 2026-05-08 00:56 | 33.20132 | -117.12518 | 17548 ft | 374 kts | 279° |
| 2026-05-08 00:56 | 33.20570 | -117.15565 | 16993 ft | 370 kts | 279° |
| 2026-05-08 00:56 | 33.20996 | -117.18535 | 16449 ft | 366 kts | 279° |
| 2026-05-08 00:56 | 33.21429 | -117.21560 | 15896 ft | 363 kts | 279° |
| 2026-05-08 00:57 | 33.21853 | -117.24524 | 15272 ft | 362 kts | 279° |
| 2026-05-08 00:57 | 33.22267 | -117.27424 | 14801 ft | 356 kts | 279° |
| 2026-05-08 00:57 | 33.22686 | -117.30362 | 14265 ft | 353 kts | 279° |
| 2026-05-08 00:57 | 33.23092 | -117.33197 | 13783 ft | 348 kts | 280° |
| 2026-05-08 00:58 | 33.23526 | -117.36017 | 13621 ft | 348 kts | 281° |
| 2026-05-08 00:58 | 33.23979 | -117.38875 | 13469 ft | 351 kts | 281° |
| 2026-05-08 00:58 | 33.24431 | -117.41724 | 13265 ft | 348 kts | 281° |
| 2026-05-08 00:58 | 33.24876 | -117.44558 | 13057 ft | 346 kts | 280° |
| 2026-05-08 00:59 | 33.25317 | -117.47379 | 12851 ft | 345 kts | 280° |
| 2026-05-08 00:59 | 33.25757 | -117.50196 | 12645 ft | 344 kts | 281° |
| 2026-05-08 00:59 | 33.26416 | -117.52940 | 12440 ft | 343 kts | 291° |
| 2026-05-08 00:59 | 33.27443 | -117.55506 | 12237 ft | 343 kts | 300° |
| 2026-05-08 01:00 | 33.28308 | -117.57124 | 12096 ft | 342 kts | 303° |
| 2026-05-08 01:00 | 33.29604 | -117.59501 | 11907 ft | 341 kts | 303° |
| 2026-05-08 01:00 | 33.30888 | -117.61879 | 11691 ft | 340 kts | 302° |
| 2026-05-08 01:00 | 33.32165 | -117.64252 | 11495 ft | 339 kts | 302° |
| 2026-05-08 01:01 | 33.33424 | -117.66596 | 11292 ft | 338 kts | 302° |
| 2026-05-08 01:01 | 33.34707 | -117.68985 | 11086 ft | 337 kts | 302° |
| 2026-05-08 01:01 | 33.35957 | -117.71311 | 10890 ft | 336 kts | 302° |
| 2026-05-08 01:01 | 33.37217 | -117.73659 | 10688 ft | 335 kts | 302° |
| 2026-05-08 01:02 | 33.38460 | -117.75976 | 10593 ft | 326 kts | 302° |
| 2026-05-08 01:02 | 33.39660 | -117.78214 | 10477 ft | 313 kts | 302° |
| 2026-05-08 01:02 | 33.40811 | -117.80362 | 10358 ft | 300 kts | 302° |
| 2026-05-08 01:02 | 33.41919 | -117.82432 | 10101 ft | 292 kts | 302° |
| 2026-05-08 01:03 | 33.43008 | -117.84465 | 9770 ft | 287 kts | 302° |
| 2026-05-08 01:03 | 33.44075 | -117.86460 | 9593 ft | 284 kts | 302° |
| 2026-05-08 01:03 | 33.45142 | -117.88456 | 9431 ft | 285 kts | 302° |
| 2026-05-08 01:03 | 33.46208 | -117.90452 | 9255 ft | 283 kts | 302° |
| 2026-05-08 01:04 | 33.47352 | -117.92361 | 9088 ft | 282 kts | 314° |
| 2026-05-08 01:04 | 33.48923 | -117.93762 | 8920 ft | 283 kts | 333° |
| 2026-05-08 01:04 | 33.50760 | -117.94605 | 8759 ft | 283 kts | 340° |
| 2026-05-08 01:04 | 33.52611 | -117.95396 | 8584 ft | 282 kts | 340° |
| 2026-05-08 01:05 | 33.54452 | -117.96190 | 8418 ft | 281 kts | 340° |
| 2026-05-08 01:05 | 33.56289 | -117.96986 | 8249 ft | 280 kts | 339° |
| 2026-05-08 01:05 | 33.58120 | -117.97783 | 8083 ft | 280 kts | 339° |
| 2026-05-08 01:05 | 33.59946 | -117.98578 | 7919 ft | 279 kts | 339° |
| 2026-05-08 01:06 | 33.61771 | -117.99373 | 7750 ft | 278 kts | 339° |
| 2026-05-08 01:06 | 33.63611 | -118.00093 | 7582 ft | 278 kts | 342° |
| 2026-05-08 01:06 | 33.65458 | -118.00763 | 7413 ft | 277 kts | 342° |
| 2026-05-08 01:06 | 33.67301 | -118.01434 | 7251 ft | 277 kts | 342° |
| 2026-05-08 01:07 | 33.69142 | -118.02107 | 7089 ft | 276 kts | 342° |
| 2026-05-08 01:07 | 33.70972 | -118.02776 | 6983 ft | 274 kts | 342° |
| 2026-05-08 01:07 | 33.72799 | -118.03445 | 6978 ft | 275 kts | 342° |
| 2026-05-08 01:07 | 33.74609 | -118.04107 | 6978 ft | 265 kts | 342° |
| 2026-05-08 01:08 | 33.76322 | -118.04733 | 6977 ft | 249 kts | 342° |
| 2026-05-08 01:08 | 33.77931 | -118.05322 | 6976 ft | 234 kts | 342° |
| 2026-05-08 01:08 | 33.79418 | -118.05981 | 6878 ft | 224 kts | 337° |
| 2026-05-08 01:08 | 33.80858 | -118.06681 | 6607 ft | 223 kts | 337° |
| 2026-05-08 01:09 | 33.82294 | -118.07373 | 6327 ft | 222 kts | 337° |
| 2026-05-08 01:09 | 33.83729 | -118.08055 | 6063 ft | 221 kts | 339° |
| 2026-05-08 01:09 | 33.85182 | -118.08639 | 5816 ft | 220 kts | 341° |
| 2026-05-08 01:09 | 33.86646 | -118.09207 | 5563 ft | 221 kts | 341° |
| 2026-05-08 01:10 | 33.88104 | -118.09772 | 5303 ft | 220 kts | 341° |
| 2026-05-08 01:10 | 33.89578 | -118.10344 | 4897 ft | 226 kts | 341° |
| 2026-05-08 01:10 | 33.91079 | -118.10927 | 4436 ft | 234 kts | 341° |
| 2026-05-08 01:10 | 33.92655 | -118.11540 | 3945 ft | 242 kts | 341° |
| 2026-05-08 01:11 | 33.94209 | -118.12262 | 3640 ft | 235 kts | 326° |
| 2026-05-08 01:11 | 33.95261 | -118.13640 | 3573 ft | 217 kts | 295° |
| 2026-05-08 01:11 | 33.95835 | -118.15278 | 3586 ft | 214 kts | 291° |
| 2026-05-08 01:11 | 33.96386 | -118.16941 | 3578 ft | 212 kts | 291° |
| 2026-05-08 01:12 | 33.96734 | -118.18643 | 3527 ft | 205 kts | 265° |
| 2026-05-08 01:12 | 33.96431 | -118.20299 | 3160 ft | 211 kts | 252° |
| 2026-05-08 01:12 | 33.95909 | -118.22063 | 2360 ft | 236 kts | 249° |
| 2026-05-08 01:12 | 33.95297 | -118.23971 | 1777 ft | 248 kts | 252° |
| 2026-05-08 01:13 | 33.94872 | -118.25962 | 1585 ft | 251 kts | 260° |
| 2026-05-08 01:13 | 33.94675 | -118.28266 | 1383 ft | 295 kts | 266° |
| 2026-05-08 01:13 | 33.94543 | -118.30579 | 1225 ft | 255 kts | 265° |
| 2026-05-08 01:13 | 33.94366 | -118.32530 | 1071 ft | 209 kts | 262° |
| 2026-05-08 01:14 | 33.94157 | -118.34072 | 830 ft | 168 kts | 261° |
| 2026-05-08 01:14 | 33.94056 | -118.35362 | 624 ft | 145 kts | 265° |
| 2026-05-08 01:14 | 33.93918 | -118.36498 | 439 ft | 130 kts | 260° |
| 2026-05-08 01:14 | 33.93810 | -118.37528 | 295 ft | 117 kts | 264° |
| 2026-05-08 01:15 | 33.93714 | -118.38475 | 137 ft | 109 kts | 263° |
| 2026-05-08 01:15 | 33.93653 | -118.39077 | 122 ft | 15 kts | 263° |
| 2026-05-08 01:15 | 33.93636 | -118.39372 | 123 ft | 29 kts | 264° |
| 2026-05-08 01:15 | 33.93621 | -118.39537 | 123 ft | 28 kts | 263° |
| 2026-05-08 01:16 | 33.93613 | -118.39771 | 121 ft | 26 kts | 279° |
| 2026-05-08 01:16 | 33.93632 | -118.39887 | 123 ft | 2 kts | 285° |
| 2026-05-08 01:16 | 33.93651 | -118.39929 | 122 ft | 0 kts | 300° |
| 2026-05-08 01:17 | 33.93663 | -118.40048 | 122 ft | 27 kts | 267° |
| 2026-05-08 01:17 | 33.93641 | -118.40284 | 125 ft | 30 kts | 262° |
| 2026-05-08 01:18 | 33.93612 | -118.40541 | 122 ft | 32 kts | 262° |
| 2026-05-08 01:18 | 33.93594 | -118.40772 | 125 ft | 25 kts | 274° |
| 2026-05-08 01:18 | 33.93660 | -118.40891 | 123 ft | 13 kts | 343° |
| 2026-05-08 01:18 | 33.93763 | -118.40911 | 124 ft | 8 kts | 351° |
| 2026-05-08 01:19 | 33.93779 | -118.40990 | 125 ft | 30 kts | 266° |
| 2026-05-08 01:19 | 33.93779 | -118.41130 | 125 ft | 4 kts | 312° |
| 2026-05-08 01:19 | 33.93814 | -118.41147 | 123 ft | 9 kts | 8° |
| 2026-05-08 01:19 | 33.93855 | -118.41030 | 122 ft | 39 kts | 83° |
| 2026-05-08 01:20 | 33.93907 | -118.40816 | 124 ft | 9 kts | 18° |
| 2026-05-08 01:20 | 33.93999 | -118.40817 | 124 ft | 13 kts | 356° |
| 2026-05-08 01:20 | 33.94037 | -118.40822 | 123 ft | 6 kts | 349° |
| 2026-05-08 01:20 | 33.94089 | -118.40850 | 124 ft | 10 kts | 309° |
| 2026-05-08 01:21 | 33.94089 | -118.40937 | 124 ft | 0 kts | 262° |